Time;durP1;ratioP1;P1;durP2;ratioP2;P2;SDS_P1;SDS_P2;PMS_P1;PMS_P2;Temp;Humidity;BMP_temperature;BMP_pressure;BME280_temperature;BME280_humidity;BME280_pressure;Samples;Min_cycle;Max_cycle;Signal;HPM_P1;HPM_P2
2021/09/01 00:01:24;;;;;;;5.22;4.08;;;;;;;13.06;86.73;97368.86;1732891;83;21043;-76
2021/09/01 00:03:51;;;;;;;4.55;3.87;;;;;;;13.01;87.14;97371.77;1734990;82;21019;-76
2021/09/01 00:06:17;;;;;;;5.45;4.00;;;;;;;12.98;86.58;97368.37;1742289;82;21017;-76
2021/09/01 00:08:44;;;;;;;5.53;3.90;;;;;;;12.90;86.52;97372.28;1750689;81;21403;-76
2021/09/01 00:11:10;;;;;;;6.47;4.42;;;;;;;12.85;86.77;97376.09;1771107;81;20994;-76
2021/09/01 00:13:36;;;;;;;6.75;4.70;;;;;;;12.77;86.61;97387.11;1742301;82;21020;-76
2021/09/01 00:16:03;;;;;;;7.22;4.28;;;;;;;12.72;86.84;97381.15;1742339;82;21458;-76
2021/09/01 00:18:29;;;;;;;5.17;3.40;;;;;;;12.66;86.67;97380.52;1768419;81;20942;-76
2021/09/01 00:20:56;;;;;;;3.92;2.90;;;;;;;12.61;86.58;97377.67;1773008;80;21044;-76
2021/09/01 00:23:22;;;;;;;4.30;3.10;;;;;;;12.53;86.62;97373.59;1772865;80;21415;-76
2021/09/01 00:25:49;;;;;;;4.08;3.33;;;;;;;12.50;87.24;97376.88;1772898;80;21021;-76
2021/09/01 00:28:15;;;;;;;5.87;3.65;;;;;;;12.49;87.01;97372.02;1750297;80;21000;-76
2021/09/01 00:30:41;;;;;;;4.22;3.30;;;;;;;12.44;86.85;97363.85;1742456;82;21045;-76
2021/09/01 00:33:08;;;;;;;4.45;3.77;;;;;;;12.39;86.98;97357.44;1742371;82;21005;-76
2021/09/01 00:35:34;;;;;;;8.10;4.25;;;;;;;12.36;86.89;97354.46;1751914;81;21021;-76
2021/09/01 00:38:01;;;;;;;7.37;4.37;;;;;;;12.33;87.66;97356.41;1772906;80;21435;-76
2021/09/01 00:40:31;;;;;;;6.05;4.80;;;;;;;12.31;87.53;97356.93;1772883;81;21021;-76
2021/09/01 00:42:56;;;;;;;5.67;4.30;;;;;;;12.26;87.27;97354.02;1772884;80;21368;-76
2021/09/01 00:45:22;;;;;;;6.42;4.97;;;;;;;12.23;87.71;97356.84;1766647;80;21005;-76
2021/09/01 00:47:48;;;;;;;6.60;4.35;;;;;;;12.22;88.38;97357.78;1742382;82;20997;-76
2021/09/01 00:50:15;;;;;;;6.75;4.60;;;;;;;12.22;87.57;97348.94;1742369;82;21088;-76
2021/09/01 00:52:41;;;;;;;6.22;5.00;;;;;;;12.20;87.48;97338.38;1744511;81;21399;-76
2021/09/01 00:55:10;;;;;;;6.12;4.83;;;;;;;12.19;87.85;97337.98;1749008;81;21009;-76
2021/09/01 00:57:41;;;;;;;6.22;5.22;;;;;;;12.20;87.77;97334.88;1773011;80;21020;-76
2021/09/01 01:00:13;;;;;;;8.68;5.40;;;;;;;12.18;87.69;97321.66;1769403;80;20997;-76
2021/09/01 01:02:39;;;;;;;6.62;5.12;;;;;;;12.14;89.35;97318.27;1772610;81;21006;-76
2021/09/01 01:05:07;;;;;;;7.80;4.83;;;;;;;12.14;88.39;97316.94;1746752;80;21055;-77
2021/09/01 01:07:33;;;;;;;7.78;4.75;;;;;;;12.16;88.51;97314.70;1765293;81;20992;-76
2021/09/01 01:10:00;;;;;;;8.53;5.10;;;;;;;12.15;88.11;97312.50;1765190;81;20980;-76
2021/09/01 01:12:27;;;;;;;6.33;4.45;;;;;;;12.14;88.63;97311.63;1764990;81;21064;-76
2021/09/01 01:14:53;;;;;;;6.25;4.35;;;;;;;12.16;88.39;97312.05;1765251;81;20941;-76
2021/09/01 01:17:24;;;;;;;4.62;4.12;;;;;;;12.16;88.46;97308.90;1764681;81;21632;-76
2021/09/01 01:19:53;;;;;;;8.40;4.12;;;;;;;12.19;88.33;97314.08;1765325;81;21027;-76
2021/09/01 01:22:23;;;;;;;5.25;4.28;;;;;;;12.21;88.95;97312.69;1765160;81;21016;-76
2021/09/01 01:25:05;;;;;;;5.08;4.20;;;;;;;12.25;89.45;97308.47;1765339;81;20999;-76
2021/09/01 01:27:36;;;;;;;5.22;3.70;;;;;;;12.32;89.06;97304.18;1746510;81;21056;-76
2021/09/01 01:30:14;;;;;;;4.55;3.77;;;;;;;12.34;89.03;97297.86;1765231;81;20988;-76
2021/09/01 01:32:43;;;;;;;6.45;4.20;;;;;;;12.39;89.27;97287.02;1764349;81;21366;-76
2021/09/01 01:35:30;;;;;;;5.00;3.92;;;;;;;12.46;89.40;97295.56;1763590;81;21418;-76
2021/09/01 01:38:00;;;;;;;5.47;3.72;;;;;;;12.51;89.62;97296.20;1735133;83;20984;-76
2021/09/01 01:40:27;;;;;;;5.30;3.75;;;;;;;12.52;89.35;97288.16;1735302;82;20996;-76
2021/09/01 01:42:55;;;;;;;8.18;4.05;;;;;;;12.56;89.18;97282.22;1735007;83;21028;-76
2021/09/01 01:45:24;;;;;;;5.15;3.67;;;;;;;12.59;89.12;97285.19;1738746;81;21054;-75
2021/09/01 01:47:51;;;;;;;5.42;3.75;;;;;;;12.59;89.03;97274.10;1765373;81;21012;-76
2021/09/01 01:50:17;;;;;;;4.33;3.47;;;;;;;12.61;88.97;97275.33;1765429;81;20961;-76
2021/09/01 01:52:44;;;;;;;6.08;4.12;;;;;;;12.61;89.43;97257.59;1765155;81;21055;-75
2021/09/01 01:55:11;;;;;;;5.12;3.42;;;;;;;12.62;88.75;97257.98;1764517;81;21458;-76
2021/09/01 01:57:37;;;;;;;4.58;4.12;;;;;;;12.62;89.99;97254.48;1734998;83;21004;-76
2021/09/01 02:00:06;;;;;;;4.50;3.90;;;;;;;12.59;89.21;97258.16;1735214;82;21008;-76
2021/09/01 02:02:35;;;;;;;4.85;3.65;;;;;;;12.58;88.77;97258.22;1735780;81;21063;-76
2021/09/01 02:05:01;;;;;;;5.03;3.83;;;;;;;12.57;88.67;97258.68;1740607;81;20997;-76
2021/09/01 02:07:29;;;;;;;4.67;4.10;;;;;;;12.52;88.64;97250.08;1761902;81;21045;-76
2021/09/01 02:09:56;;;;;;;5.70;4.28;;;;;;;12.52;88.68;97248.29;1763215;81;21063;-77
2021/09/01 02:12:23;;;;;;;5.85;4.55;;;;;;;12.48;90.84;97249.37;1763209;81;20973;-76
2021/09/01 02:14:49;;;;;;;7.20;4.58;;;;;;;12.45;89.28;97244.69;1763207;81;21470;-75
2021/09/01 02:17:16;;;;;;;5.80;4.60;;;;;;;12.46;89.29;97243.25;1736951;81;21051;-76
2021/09/01 02:19:42;;;;;;;6.33;3.92;;;;;;;12.45;89.07;97245.53;1732999;83;20956;-75
2021/09/01 02:22:09;;;;;;;5.00;4.45;;;;;;;12.42;89.54;97233.73;1732972;83;21020;-76
2021/09/01 02:24:35;;;;;;;6.40;3.98;;;;;;;12.43;89.25;97243.42;1746126;81;21490;-76
2021/09/01 02:27:02;;;;;;;4.70;4.22;;;;;;;12.43;89.26;97243.42;1763337;81;20957;-76
2021/09/01 02:29:29;;;;;;;8.33;4.90;;;;;;;12.41;88.75;97247.94;1763312;81;20964;-76
2021/09/01 02:31:56;;;;;;;4.83;4.33;;;;;;;12.41;89.78;97246.61;1763107;81;21027;-76
2021/09/01 02:34:22;;;;;;;7.22;4.78;;;;;;;12.41;89.31;97239.97;1752844;81;20984;-76
2021/09/01 02:36:49;;;;;;;6.25;4.90;;;;;;;12.45;89.34;97248.19;1733026;83;21028;-76
2021/09/01 02:39:15;;;;;;;6.45;4.47;;;;;;;12.45;89.36;97249.52;1733162;81;21421;-76
2021/09/01 02:41:42;;;;;;;5.42;4.72;;;;;;;12.48;89.17;97252.03;1733094;83;21024;-76
2021/09/01 02:44:08;;;;;;;6.30;4.25;;;;;;;12.47;89.65;97247.66;1739761;81;20973;-76
2021/09/01 02:46:35;;;;;;;4.60;4.20;;;;;;;12.49;89.10;97252.42;1763107;81;21015;-76
2021/09/01 02:49:01;;;;;;;5.35;3.95;;;;;;;12.52;89.85;97245.63;1763275;81;21056;-76
2021/09/01 02:51:27;;;;;;;5.87;3.85;;;;;;;12.52;89.54;97246.96;1763327;81;21406;-76
2021/09/01 02:53:54;;;;;;;6.05;4.62;;;;;;;12.54;89.47;97257.03;1759367;81;21616;-76
2021/09/01 02:56:20;;;;;;;4.70;4.17;;;;;;;12.56;89.97;97264.06;1733056;83;21000;-76
2021/09/01 02:58:46;;;;;;;5.37;4.35;;;;;;;12.58;89.48;97269.70;1732958;83;20977;-76
2021/09/01 03:01:13;;;;;;;3.67;3.10;;;;;;;12.63;90.36;97288.09;1732955;83;21032;-77
2021/09/01 03:03:40;;;;;;;4.37;2.60;;;;;;;12.65;89.51;97296.84;1733367;81;21055;-76
2021/09/01 03:06:07;;;;;;;4.60;2.60;;;;;;;12.65;89.38;97303.03;1763232;80;20964;-76
2021/09/01 03:08:33;;;;;;;3.25;2.80;;;;;;;12.66;89.52;97304.75;1754238;81;20996;-76
2021/09/01 03:10:59;;;;;;;5.35;2.42;;;;;;;12.67;89.50;97309.12;1762000;81;21564;-76
2021/09/01 03:13:26;;;;;;;7.00;2.40;;;;;;;12.70;89.53;97317.41;1763271;81;21076;-77
2021/09/01 03:15:52;;;;;;;2.42;2.22;;;;;;;12.72;89.60;97320.88;1735498;81;20985;-77
2021/09/01 03:18:18;;;;;;;5.20;2.35;;;;;;;12.72;89.91;97320.00;1732912;83;21474;-77
2021/09/01 03:20:45;;;;;;;2.25;2.02;;;;;;;12.76;89.60;97307.83;1733079;83;21075;-77
2021/09/01 03:23:11;;;;;;;3.70;2.00;;;;;;;12.82;89.54;97318.61;1732881;83;21035;-77
2021/09/01 03:25:38;;;;;;;1.98;1.72;;;;;;;12.82;89.67;97313.29;1756960;80;20980;-77
2021/09/01 03:28:04;;;;;;;3.00;1.60;;;;;;;12.85;89.86;97322.91;1762907;81;21020;-77
2021/09/01 03:30:31;;;;;;;3.02;2.08;;;;;;;12.87;89.95;97331.69;1763188;81;21047;-77
2021/09/01 03:32:59;;;;;;;2.80;1.87;;;;;;;12.91;90.73;97327.45;1743996;81;20956;-78
2021/09/01 03:35:25;;;;;;;3.87;2.20;;;;;;;12.91;89.90;97326.13;1753467;80;22238;-79
2021/09/01 03:37:53;;;;;;;3.75;2.55;;;;;;;12.92;90.10;97330.98;1763318;81;21449;-78
2021/09/01 03:40:20;;;;;;;2.55;2.35;;;;;;;12.96;90.07;97336.55;1763170;81;21465;-78
2021/09/01 03:42:47;;;;;;;2.62;2.33;;;;;;;12.98;90.56;97329.80;1763183;81;20985;-78
2021/09/01 03:45:13;;;;;;;3.80;2.52;;;;;;;12.98;90.42;97328.47;1745207;81;21024;-78
2021/09/01 03:47:41;;;;;;;6.58;3.17;;;;;;;12.97;90.30;97343.59;1733021;83;21031;-77
2021/09/01 03:50:11;;;;;;;3.90;2.67;;;;;;;12.98;90.56;97338.66;1732799;83;21004;-78
2021/09/01 03:52:38;;;;;;;6.42;2.50;;;;;;;13.00;90.74;97334.11;1733038;83;21016;-77
2021/09/01 03:55:09;;;;;;;3.35;2.58;;;;;;;13.03;91.70;97330.43;1748333;81;21403;-78
2021/09/01 03:57:37;;;;;;;3.17;2.25;;;;;;;13.04;90.66;97331.69;1763045;81;21437;-77
2021/09/01 04:00:10;;;;;;;4.15;3.17;;;;;;;13.06;91.41;97335.61;1763138;81;21043;-77
2021/09/01 04:02:40;;;;;;;4.37;2.95;;;;;;;13.07;90.99;97336.87;1753996;81;21557;-77
2021/09/01 04:05:08;;;;;;;3.62;3.22;;;;;;;13.06;91.83;97340.93;1738449;81;21044;-77
2021/09/01 04:07:34;;;;;;;5.75;3.15;;;;;;;13.06;92.25;97339.59;1756763;81;21052;-77
2021/09/01 04:10:01;;;;;;;9.08;3.58;;;;;;;13.05;91.11;97340.55;1759992;81;21541;-77
2021/09/01 04:12:27;;;;;;;3.35;3.05;;;;;;;12.97;92.26;97344.92;1752822;81;21045;-77
2021/09/01 04:14:54;;;;;;;5.60;3.17;;;;;;;12.95;91.65;97346.77;1750383;81;20984;-77
2021/09/01 04:17:20;;;;;;;5.47;3.55;;;;;;;12.93;91.78;97348.66;1733061;83;21016;-77
2021/09/01 04:19:46;;;;;;;4.37;3.40;;;;;;;12.89;91.77;97342.64;1733135;83;21451;-77
2021/09/01 04:22:13;;;;;;;6.45;3.42;;;;;;;12.88;91.55;97348.87;1737380;81;21067;-77
2021/09/01 04:24:39;;;;;;;5.00;3.40;;;;;;;12.88;91.60;97353.34;1748373;81;20961;-78
2021/09/01 04:27:06;;;;;;;4.50;3.25;;;;;;;12.85;93.74;97355.69;1759013;81;21012;-78
2021/09/01 04:29:33;;;;;;;4.03;3.10;;;;;;;12.80;93.02;97360.38;1763268;81;21012;-78
2021/09/01 04:31:59;;;;;;;3.65;3.20;;;;;;;12.78;93.95;97361.78;1754962;81;21414;-78
2021/09/01 04:34:26;;;;;;;9.15;3.60;;;;;;;12.77;92.99;97370.70;1745306;81;21049;-78
2021/09/01 04:36:52;;;;;;;5.85;3.22;;;;;;;12.75;92.96;97363.24;1751357;81;20991;-79
2021/09/01 04:39:19;;;;;;;2.40;2.05;;;;;;;12.75;92.93;97368.56;1763082;81;21008;-79
2021/09/01 04:41:45;;;;;;;1.50;1.30;;;;;;;12.77;94.54;97360.06;1746463;81;21047;-79
2021/09/01 04:44:12;;;;;;;2.17;1.27;;;;;;;12.78;97.54;97360.45;1756629;81;20984;-78
2021/09/01 04:46:38;;;;;;;2.47;1.40;;;;;;;12.83;98.82;97365.52;1734823;81;20956;-80
2021/09/01 04:49:05;;;;;;;1.20;1.07;;;;;;;12.86;96.57;97378.69;1748939;81;20945;-78
2021/09/01 04:51:31;;;;;;;2.98;1.22;;;;;;;12.88;97.28;97370.64;1762197;81;21488;-79
2021/09/01 04:53:57;;;;;;;1.00;0.90;;;;;;;12.91;97.91;97370.47;1763204;81;21032;-80
2021/09/01 04:56:26;;;;;;;1.47;1.20;;;;;;;12.92;96.94;97373.05;1729881;81;21476;-81
2021/09/01 04:58:53;;;;;;;3.87;1.50;;;;;;;12.96;97.21;97376.45;1746375;81;21004;-84
2021/09/01 05:01:20;;;;;;;1.70;1.17;;;;;;;12.98;97.15;97372.36;1745032;81;21020;-81
2021/09/01 05:03:46;;;;;;;2.25;1.50;;;;;;;13.00;97.38;97367.36;1745429;81;21000;-81
2021/09/01 05:06:13;;;;;;;3.55;1.32;;;;;;;13.05;96.15;97368.47;1740251;81;21430;-81
2021/09/01 05:08:39;;;;;;;1.52;0.70;;;;;;;13.10;96.35;97372.22;1753125;80;20989;-81
2021/09/01 05:11:06;;;;;;;1.32;0.60;;;;;;;13.10;96.31;97368.23;1746377;81;21099;-81
2021/09/01 05:13:32;;;;;;;0.50;0.50;;;;;;;13.14;96.08;97364.02;1764856;81;21364;-81
2021/09/01 05:15:59;;;;;;;0.78;0.60;;;;;;;13.13;96.97;97378.27;1773266;81;20966;-81
2021/09/01 05:18:25;;;;;;;0.65;0.50;;;;;;;13.17;95.83;97366.52;1773092;81;20986;-81
2021/09/01 05:20:57;;;;;;;1.12;0.75;;;;;;;13.20;96.73;97373.48;1761819;80;20968;-81
2021/09/01 05:23:31;;;;;;;1.87;0.60;;;;;;;13.16;97.21;97377.26;1742357;82;21021;-82
2021/09/01 05:26:06;;;;;;;0.90;0.60;;;;;;;13.17;97.24;97384.30;1741662;82;21017;-82
2021/09/01 05:28:36;;;;;;;2.08;0.82;;;;;;;13.13;97.92;97380.94;1742598;82;21013;-82
2021/09/01 05:31:06;;;;;;;0.80;0.60;;;;;;;13.12;97.90;97381.00;1756139;81;21347;-82
2021/09/01 05:33:37;;;;;;;1.27;0.70;;;;;;;13.05;99.02;97377.30;1773434;81;21010;-82
2021/09/01 05:36:05;;;;;;;0.82;0.50;;;;;;;13.12;97.59;97388.50;1773300;80;21013;-82
2021/09/01 05:38:34;;;;;;;1.85;0.62;;;;;;;13.07;98.05;97383.88;1752422;80;21024;-82
2021/09/01 05:41:02;;;;;;;1.05;0.62;;;;;;;13.07;97.98;97382.09;1742721;82;21411;-82
2021/09/01 05:43:30;;;;;;;0.50;0.50;;;;;;;13.05;98.35;97377.30;1742454;82;21072;-82
2021/09/01 05:45:56;;;;;;;1.67;0.47;;;;;;;13.07;98.55;97382.55;1742619;82;21056;-81
2021/09/01 05:48:23;;;;;;;31.65;18.85;;;;;;;13.11;98.14;97379.26;1760742;81;21013;-81
2021/09/01 05:50:55;;;;;;;17.87;11.08;;;;;;;13.14;97.73;97381.32;1773205;81;21013;-81
2021/09/01 05:53:23;;;;;;;0.95;0.65;;;;;;;13.16;97.49;97387.41;1773243;80;21427;-81
2021/09/01 05:55:53;;;;;;;0.60;0.47;;;;;;;13.15;97.53;97388.81;1773019;81;21427;-81
2021/09/01 05:58:20;;;;;;;0.70;0.50;;;;;;;13.17;98.05;97391.79;1771556;80;21002;-81
2021/09/01 06:00:55;;;;;;;0.57;0.40;;;;;;;13.22;97.85;97390.24;1773196;81;21009;-80
2021/09/01 06:03:33;;;;;;;0.93;0.47;;;;;;;13.26;98.25;97400.26;1776951;80;21003;-81
2021/09/01 06:06:04;;;;;;;1.02;0.85;;;;;;;13.27;98.34;97401.52;1773029;80;20981;-81
2021/09/01 06:08:34;;;;;;;1.55;1.20;;;;;;;13.33;98.22;97401.20;1757355;81;21037;-81
2021/09/01 06:11:08;;;;;;;3.72;1.20;;;;;;;13.37;99.12;97405.89;1742608;82;21604;-81
2021/09/01 06:13:34;;;;;;;3.02;1.57;;;;;;;13.42;99.56;97408.34;1742879;82;20974;-81
2021/09/01 06:16:01;;;;;;;3.12;1.40;;;;;;;13.48;98.49;97406.72;1742603;82;21017;-81
2021/09/01 06:18:27;;;;;;;4.53;1.55;;;;;;;13.51;98.25;97405.24;1746702;81;21005;-81
2021/09/01 06:20:54;;;;;;;2.02;1.50;;;;;;;13.53;99.57;97406.02;1746352;82;21033;-81
2021/09/01 06:23:21;;;;;;;2.10;1.30;;;;;;;13.62;99.09;97402.01;1742407;82;21100;-81
2021/09/01 06:25:48;;;;;;;3.25;1.30;;;;;;;13.65;98.42;97402.31;1742707;82;20997;-81
2021/09/01 06:28:15;;;;;;;1.62;1.20;;;;;;;13.74;98.28;97397.84;1753780;80;20990;-81
2021/09/01 06:30:41;;;;;;;2.62;1.35;;;;;;;13.83;97.42;97399.19;1773106;81;21005;-81
2021/09/01 06:33:08;;;;;;;1.82;1.20;;;;;;;13.91;97.18;97400.12;1773111;81;21422;-81
2021/09/01 06:35:34;;;;;;;1.82;1.30;;;;;;;14.02;96.90;97407.06;1773112;80;20977;-81
2021/09/01 06:38:02;;;;;;;1.42;0.82;;;;;;;14.08;96.29;97409.87;1764993;81;21056;-81
2021/09/01 06:40:28;;;;;;;2.02;0.90;;;;;;;14.13;95.78;97403.34;1742625;82;21029;-81
2021/09/01 06:42:55;;;;;;;1.85;1.27;;;;;;;14.20;95.40;97406.54;1742606;82;20986;-81
2021/09/01 06:45:22;;;;;;;2.52;1.35;;;;;;;14.30;94.79;97421.58;1742589;82;21001;-81
2021/09/01 06:47:50;;;;;;;1.20;0.95;;;;;;;14.37;95.75;97421.62;1768562;81;20993;-81
2021/09/01 06:50:24;;;;;;;1.10;0.75;;;;;;;14.53;95.00;97426.11;1773162;81;21016;-81
2021/09/01 06:52:52;;;;;;;1.40;0.98;;;;;;;14.67;94.52;97427.16;1773135;81;21080;-82
2021/09/01 06:55:19;;;;;;;0.80;0.80;;;;;;;14.80;94.97;97429.57;1757615;80;21005;-81
2021/09/01 06:57:46;;;;;;;1.98;1.30;;;;;;;14.82;93.35;97434.83;1742552;82;21044;-81
2021/09/01 07:00:16;;;;;;;2.42;1.20;;;;;;;14.87;91.66;97437.60;1742543;82;21013;-80
2021/09/01 07:02:43;;;;;;;0.75;0.75;;;;;;;14.95;91.19;97443.00;1742667;82;21036;-80
2021/09/01 07:05:12;;;;;;;1.25;0.93;;;;;;;14.94;89.09;97444.80;1755533;81;21355;-80
2021/09/01 07:07:42;;;;;;;1.17;0.95;;;;;;;14.94;88.36;97439.45;1772948;80;21013;-81
2021/09/01 07:10:10;;;;;;;1.15;0.85;;;;;;;14.95;90.26;97441.17;1773069;81;20970;-81
2021/09/01 07:12:37;;;;;;;1.27;0.80;;;;;;;15.07;90.15;97438.78;1773037;81;21037;-81
2021/09/01 07:15:08;;;;;;;1.77;0.88;;;;;;;15.10;89.73;97434.12;1761731;80;21000;-79
2021/09/01 07:17:34;;;;;;;1.12;0.80;;;;;;;15.17;89.22;97443.97;1742546;82;21411;-80
2021/09/01 07:20:01;;;;;;;1.22;0.88;;;;;;;15.22;88.38;97443.23;1742444;82;21033;-81
2021/09/01 07:22:27;;;;;;;1.20;1.10;;;;;;;15.24;85.69;97449.33;1742544;82;21021;-81
2021/09/01 07:24:54;;;;;;;2.42;1.22;;;;;;;15.28;86.60;97446.88;1759038;81;21108;-79
2021/09/01 07:27:21;;;;;;;0.82;0.80;;;;;;;15.38;87.22;97453.02;1758483;81;20969;-79
2021/09/01 07:29:49;;;;;;;2.10;0.90;;;;;;;15.41;85.08;97460.37;1753489;81;21033;-81
2021/09/01 07:32:15;;;;;;;2.08;0.90;;;;;;;15.38;84.14;97460.56;1748751;81;21179;-79
2021/09/01 07:34:41;;;;;;;1.75;1.02;;;;;;;15.44;85.39;97461.53;1771807;81;21009;-80
2021/09/01 07:37:08;;;;;;;0.90;0.80;;;;;;;15.51;84.94;97465.17;1744891;80;21009;-78
2021/09/01 07:39:34;;;;;;;2.35;0.60;;;;;;;15.57;84.40;97464.34;1712014;83;21011;-81
2021/09/01 07:42:00;;;;;;;0.85;0.68;;;;;;;15.57;82.52;97449.66;1717049;83;21070;-81
2021/09/01 07:44:27;;;;;;;1.40;0.78;;;;;;;15.56;82.19;97461.77;1706226;83;20990;-81
2021/09/01 07:46:53;;;;;;;0.88;0.80;;;;;;;15.56;82.64;97452.41;1701599;84;20971;-80
2021/09/01 07:49:20;;;;;;;1.20;0.98;;;;;;;15.61;82.08;97449.48;1709777;83;20975;-80
2021/09/01 07:51:47;;;;;;;1.30;0.90;;;;;;;15.70;82.67;97452.46;1721512;83;21038;-80
2021/09/01 07:54:14;;;;;;;0.90;0.90;;;;;;;15.76;81.65;97458.39;1720894;83;21005;-81
2021/09/01 07:56:40;;;;;;;2.08;0.98;;;;;;;15.81;81.69;97461.64;1744302;81;21048;-80
2021/09/01 07:59:07;;;;;;;2.30;0.88;;;;;;;15.92;80.90;97458.34;1753947;80;21033;-80
2021/09/01 08:01:35;;;;;;;1.22;1.00;;;;;;;15.92;80.20;97475.24;1749682;81;21045;-80
2021/09/01 08:04:02;;;;;;;1.05;0.95;;;;;;;16.02;82.04;97462.20;1750836;81;21419;-80
2021/09/01 08:06:29;;;;;;;1.37;1.00;;;;;;;16.11;80.65;97468.80;1760737;80;20969;-80
2021/09/01 08:08:55;;;;;;;1.57;1.00;;;;;;;16.19;80.86;97470.53;1770681;80;20997;-81
2021/09/01 08:11:21;;;;;;;0.85;0.80;;;;;;;16.23;78.87;97468.52;1777906;80;21044;-80
2021/09/01 08:13:48;;;;;;;1.20;1.00;;;;;;;16.33;80.14;97472.84;1787169;80;21008;-80
2021/09/01 08:16:14;;;;;;;1.30;0.95;;;;;;;16.36;78.68;97474.84;1786951;80;21052;-82
2021/09/01 08:18:41;;;;;;;1.75;1.00;;;;;;;16.42;78.55;97478.97;1774979;80;21964;-79
2021/09/01 08:21:07;;;;;;;1.22;0.90;;;;;;;16.50;78.91;97473.98;1787086;80;21001;-82
2021/09/01 08:23:33;;;;;;;1.02;0.93;;;;;;;16.62;77.73;97480.88;1774385;80;21012;-81
2021/09/01 08:26:00;;;;;;;1.15;1.00;;;;;;;16.64;76.15;97481.62;1778463;80;21494;-82
2021/09/01 08:28:26;;;;;;;1.20;1.07;;;;;;;16.72;76.04;97485.16;1782389;80;20988;-81
2021/09/01 08:30:53;;;;;;;1.17;1.05;;;;;;;16.80;76.72;97468.61;1755891;82;21068;-83
2021/09/01 08:33:20;;;;;;;1.25;0.90;;;;;;;16.92;74.63;97481.23;1755719;82;21029;-83
2021/09/01 08:35:47;;;;;;;1.30;1.10;;;;;;;16.97;74.02;97478.24;1755960;81;21470;-84
2021/09/01 08:38:14;;;;;;;1.17;1.07;;;;;;;16.93;73.21;97476.25;1732530;83;21030;-83
2021/09/01 08:40:40;;;;;;;1.30;0.90;;;;;;;17.10;74.64;97483.23;1732209;83;21087;-85
2021/09/01 08:43:07;;;;;;;1.00;0.72;;;;;;;17.32;74.66;97487.67;1761798;81;21072;-81
2021/09/01 08:45:34;;;;;;;1.00;0.90;;;;;;;17.38;71.72;97500.65;1757862;81;20990;-82
2021/09/01 08:48:01;;;;;;;0.90;0.80;;;;;;;17.40;73.44;97485.36;1727522;80;21013;-80
2021/09/01 08:50:29;;;;;;;2.25;0.72;;;;;;;17.42;73.11;97490.12;1718125;83;21026;-81
2021/09/01 08:52:56;;;;;;;1.30;0.90;;;;;;;17.47;72.96;97487.13;1733556;81;21036;-82
2021/09/01 08:55:24;;;;;;;1.00;0.80;;;;;;;17.51;72.19;97498.89;1676095;84;21809;-81
2021/09/01 08:57:50;;;;;;;0.88;0.80;;;;;;;17.50;73.20;97489.14;1703606;84;21439;-82
2021/09/01 09:00:17;;;;;;;1.02;0.93;;;;;;;17.53;73.32;97504.99;1732965;83;21054;-85
2021/09/01 09:03:01;;;;;;;1.00;0.90;;;;;;;17.50;72.27;97497.18;1732521;83;21104;-81
2021/09/01 09:05:34;;;;;;;4.45;3.77;;;;;;;17.59;73.22;97500.19;1732297;83;21134;-80
2021/09/01 09:08:02;;;;;;;15.40;8.67;;;;;;;17.67;71.22;97504.56;1705717;83;21089;-80
2021/09/01 09:10:37;;;;;;;1.98;1.05;;;;;;;17.82;71.76;97495.99;1781673;80;21021;-80
2021/09/01 09:13:11;;;;;;;1.85;1.20;;;;;;;17.87;70.85;97492.98;1780727;80;21341;-79
2021/09/01 09:15:40;;;;;;;1.02;0.93;;;;;;;17.88;70.13;97500.93;1760418;80;21024;-81
2021/09/01 09:18:29;;;;;;;1.50;1.07;;;;;;;17.82;69.32;97495.99;1747107;80;20973;-81
2021/09/01 09:21:15;;;;;;;2.95;1.30;;;;;;;17.74;69.63;97495.64;1767119;80;21434;-80
2021/09/01 09:23:45;;;;;;;2.85;1.37;;;;;;;17.54;69.48;97508.08;1730722;81;21020;-82
2021/09/01 09:26:32;;;;;;;1.30;1.15;;;;;;;17.58;70.29;97502.50;1775257;79;20981;-82
2021/09/01 09:29:11;;;;;;;1.52;1.42;;;;;;;17.56;69.97;97502.59;1780901;80;21430;-81
2021/09/01 09:31:41;;;;;;;1.52;1.40;;;;;;;17.65;70.79;97488.59;1775054;80;20973;-82
2021/09/01 09:34:11;;;;;;;4.30;1.40;;;;;;;17.78;69.97;97489.95;1779384;80;20986;-79
2021/09/01 09:36:38;;;;;;;2.00;1.30;;;;;;;17.79;69.20;97488.15;1773392;80;20993;-80
2021/09/01 09:39:06;;;;;;;2.15;1.62;;;;;;;17.90;69.83;97493.63;1760653;80;21052;-81
2021/09/01 09:41:33;;;;;;;1.80;1.70;;;;;;;17.94;69.12;97499.16;1731499;82;21035;-81
2021/09/01 09:44:03;;;;;;;2.80;1.52;;;;;;;17.88;68.11;97492.89;1743915;81;21476;-81
2021/09/01 09:46:32;;;;;;;1.80;1.70;;;;;;;17.72;68.49;97502.44;1768075;78;20922;-79
2021/09/01 09:49:07;;;;;;;2.12;1.92;;;;;;;17.71;69.09;97511.45;1760296;80;21036;-81
2021/09/01 09:51:42;;;;;;;1.92;1.50;;;;;;;17.73;67.94;97499.29;1751348;82;20997;-81
2021/09/01 09:54:18;;;;;;;2.42;1.52;;;;;;;17.81;67.76;97491.10;1751100;82;21044;-81
2021/09/01 09:56:47;;;;;;;1.55;1.37;;;;;;;17.94;66.70;97502.35;1790938;79;21036;-82
2021/09/01 09:59:18;;;;;;;2.83;1.80;;;;;;;18.01;66.88;97514.36;1768467;80;20953;-82
2021/09/01 10:01:46;;;;;;;1.55;1.45;;;;;;;18.22;66.74;97505.00;1770460;80;21001;-84
2021/09/01 10:04:13;;;;;;;1.52;1.30;;;;;;;18.31;66.49;97504.36;1764912;80;21001;-81
2021/09/01 10:06:43;;;;;;;8.05;5.00;;;;;;;18.20;66.72;97510.45;1772928;80;21471;-80
2021/09/01 10:09:11;;;;;;;1.92;1.40;;;;;;;18.39;67.44;97495.28;1768042;80;20962;-80
2021/09/01 10:11:48;;;;;;;2.58;1.40;;;;;;;18.53;67.14;97502.85;1770609;80;21040;-82
2021/09/01 10:14:22;;;;;;;1.50;1.40;;;;;;;18.47;64.89;97505.00;1750247;82;21521;-82
2021/09/01 10:16:57;;;;;;;1.40;1.30;;;;;;;18.38;65.69;97524.42;1750320;82;21032;-81
2021/09/01 10:19:27;;;;;;;1.60;1.40;;;;;;;18.19;65.88;97510.09;1750498;82;20989;-82
2021/09/01 10:22:07;;;;;;;1.90;1.50;;;;;;;18.25;66.27;97516.83;1750378;80;21012;-82
2021/09/01 10:24:39;;;;;;;5.35;1.57;;;;;;;18.38;66.75;97501.61;1734645;83;21151;-82
2021/09/01 10:27:35;;;;;;;3.17;2.05;;;;;;;18.51;65.81;97508.31;1713180;80;21550;-79
2021/09/01 10:30:11;;;;;;;2.35;1.75;;;;;;;18.68;65.13;97496.90;1688542;84;21019;-78
2021/09/01 10:32:52;;;;;;;2.08;1.37;;;;;;;18.82;64.60;97508.86;1714690;82;20992;-79
2021/09/01 10:35:26;;;;;;;2.12;1.50;;;;;;;18.85;63.57;97506.44;1699403;83;20923;-83
2021/09/01 10:37:54;;;;;;;;;;;;;;;19.10;65.05;97497.98;1685789;84;21520;-80
2021/09/01 10:40:30;;;;;;;1.85;1.57;;;;;;;19.37;65.29;97497.78;1689417;84;20125;-84
2021/09/01 10:43:00;;;;;;;1.70;1.60;;;;;;;19.84;61.85;97498.36;1682106;85;21385;-85
2021/09/01 10:45:51;;;;;;;2.12;1.30;;;;;;;20.08;64.11;97500.66;1677733;85;21050;-82
2021/09/01 10:48:19;;;;;;;1.47;1.30;;;;;;;20.05;62.21;97500.41;1682081;85;20959;-85
2021/09/01 10:50:51;;;;;;;2.17;1.65;;;;;;;19.90;61.39;97505.95;1716205;83;21071;-82
2021/09/01 10:53:29;;;;;;;3.55;1.60;;;;;;;19.68;62.16;97506.72;1699363;84;21413;-83
2021/09/01 10:56:06;;;;;;;1.80;1.50;;;;;;;19.59;62.44;97516.84;1692518;84;21005;-83
2021/09/01 10:58:42;;;;;;;2.10;1.22;;;;;;;19.43;62.68;97517.11;1701092;83;20967;-82
2021/09/01 11:01:13;;;;;;;1.80;1.42;;;;;;;19.19;63.24;97515.25;1698958;83;20972;-82
2021/09/01 11:03:48;;;;;;;1.57;1.37;;;;;;;19.02;63.48;97513.75;1699424;83;21003;-82
2021/09/01 11:06:24;;;;;;;3.83;1.50;;;;;;;18.79;63.33;97526.52;1693247;84;21047;-82
2021/09/01 11:09:12;;;;;;;2.60;1.50;;;;;;;18.55;64.61;97526.39;1681374;84;21043;-82
2021/09/01 11:11:53;;;;;;;1.85;1.70;;;;;;;18.33;65.66;97538.16;1682859;85;21063;-82
2021/09/01 11:14:42;;;;;;;2.08;1.60;;;;;;;18.07;68.30;97537.26;1682657;83;21043;-83
2021/09/01 11:17:17;;;;;;;3.47;1.80;;;;;;;17.80;70.99;97546.14;1692562;84;20960;-82
2021/09/01 11:19:48;;;;;;;23.80;17.45;;;;;;;17.43;72.87;97541.89;1710830;84;21394;-83
2021/09/01 11:22:26;;;;;;;9.23;5.53;;;;;;;17.25;73.29;97542.98;1711139;83;21418;-84
2021/09/01 11:25:17;;;;;;;2.58;1.80;;;;;;;17.05;74.16;97546.91;1687597;84;20987;-82
2021/09/01 11:27:52;;;;;;;5.87;2.60;;;;;;;16.95;73.48;97545.75;1702959;84;21332;-81
2021/09/01 11:30:28;;;;;;;2.87;2.40;;;;;;;16.81;75.95;97550.64;1716706;83;21456;-83
2021/09/01 11:33:01;;;;;;;2.98;2.15;;;;;;;16.61;76.70;97557.59;1671211;84;21062;-83
2021/09/01 11:35:30;;;;;;;2.93;1.90;;;;;;;16.41;81.78;97561.96;1677292;84;20989;-82
2021/09/01 11:38:05;;;;;;;3.92;2.67;;;;;;;16.29;78.20;97562.22;1671942;84;21033;-86
2021/09/01 11:40:42;;;;;;;2.87;2.35;;;;;;;16.23;78.19;97560.77;1681945;84;20998;-86
2021/09/01 11:43:20;;;;;;;2.98;2.10;;;;;;;16.20;79.49;97561.81;1679806;85;20997;-85